Time;durP1;ratioP1;P1;durP2;ratioP2;P2;SDS_P1;SDS_P2;PMS_P1;PMS_P2;Temp;Humidity;BMP_temperature;BMP_pressure;BME280_temperature;BME280_humidity;BME280_pressure;Samples;Min_cycle;Max_cycle;Signal;HPM_P1;HPM_P2
2022/08/14 00:00:02;;;;;;;9.80;5.90;;;;;;;17.37;64.82;96011.31;4993664;28;20050;-77
2022/08/14 00:02:28;;;;;;;13.05;6.60;;;;;;;17.34;65.10;96012.06;4993041;28;20486;-78
2022/08/14 00:04:56;;;;;;;9.25;5.60;;;;;;;17.33;64.63;96010.47;4993448;28;20077;-77
2022/08/14 00:07:23;;;;;;;11.45;6.40;;;;;;;17.36;64.69;96009.72;4992799;28;20046;-77
2022/08/14 00:09:49;;;;;;;13.43;5.65;;;;;;;17.38;64.83;95996.41;4993395;28;20043;-77
2022/08/14 00:12:15;;;;;;;9.85;5.82;;;;;;;17.37;64.71;95997.53;4993093;28;20046;-77
2022/08/14 00:14:42;;;;;;;11.82;6.30;;;;;;;17.26;64.52;95987.53;4992638;28;20046;-77
2022/08/14 00:17:08;;;;;;;13.80;5.95;;;;;;;17.06;64.70;95984.09;4992667;28;20057;-77
2022/08/14 00:19:35;;;;;;;10.70;5.97;;;;;;;16.86;64.89;95975.94;4992989;28;20046;-77
2022/08/14 00:22:03;;;;;;;13.05;6.43;;;;;;;16.87;64.69;95977.50;4991241;28;20061;-76
2022/08/14 00:24:29;;;;;;;13.80;6.25;;;;;;;16.94;64.50;95977.63;4993018;28;20045;-77
2022/08/14 00:26:57;;;;;;;8.63;5.63;;;;;;;16.97;64.16;95980.81;4993009;28;20055;-77
2022/08/14 00:29:23;;;;;;;8.95;5.70;;;;;;;16.99;63.94;95978.47;4992464;28;20038;-77
2022/08/14 00:31:50;;;;;;;9.60;5.38;;;;;;;17.00;63.75;95974.56;4993208;28;20046;-77
2022/08/14 00:34:16;;;;;;;10.52;5.68;;;;;;;17.09;64.11;95966.84;4992357;28;20074;-78
2022/08/14 00:36:43;;;;;;;11.10;5.85;;;;;;;17.11;64.88;95970.00;4992706;28;20047;-77
2022/08/14 00:39:14;;;;;;;11.05;5.88;;;;;;;16.99;64.66;95970.22;4992154;28;20047;-78
2022/08/14 00:41:40;;;;;;;13.38;6.70;;;;;;;16.76;64.74;95971.03;4992453;28;20046;-77
2022/08/14 00:44:07;;;;;;;10.75;5.93;;;;;;;16.73;65.45;95965.47;4991954;28;20053;-76
2022/08/14 00:46:33;;;;;;;13.27;5.80;;;;;;;16.76;65.45;95970.22;4992442;28;20477;-77
2022/08/14 00:49:00;;;;;;;10.18;6.25;;;;;;;16.70;64.71;95961.47;4992423;28;20050;-78
2022/08/14 00:51:31;;;;;;;11.65;5.95;;;;;;;16.77;64.51;95969.09;4991761;28;20108;-78
2022/08/14 00:53:58;;;;;;;10.38;5.28;;;;;;;16.78;65.43;95967.91;4992346;28;20050;-80
2022/08/14 00:56:26;;;;;;;8.77;5.15;;;;;;;16.68;66.00;95970.09;4991772;28;20050;-78
2022/08/14 00:58:53;;;;;;;9.23;5.93;;;;;;;16.62;66.00;95968.81;4992229;28;20043;-77
2022/08/14 01:01:20;;;;;;;8.20;5.45;;;;;;;16.61;66.00;95963.69;4991797;28;20049;-77
2022/08/14 01:03:46;;;;;;;7.20;4.78;;;;;;;16.60;65.56;95964.81;4992067;28;20061;-77
2022/08/14 01:06:15;;;;;;;8.52;5.53;;;;;;;16.52;66.13;95963.13;4991672;28;20043;-77
2022/08/14 01:08:44;;;;;;;9.98;5.93;;;;;;;16.48;66.57;95959.50;4992110;28;20072;-77
2022/08/14 01:11:14;;;;;;;8.73;5.15;;;;;;;16.49;66.28;95961.09;4991582;28;20046;-77
2022/08/14 01:13:44;;;;;;;8.85;5.15;;;;;;;16.48;65.80;95956.75;4992159;28;20564;-77
2022/08/14 01:16:12;;;;;;;8.30;5.40;;;;;;;16.49;65.36;95956.38;4991312;28;20057;-78
2022/08/14 01:21:30;;;;;;;9.25;5.57;;;;;;;16.50;66.32;95957.22;4990776;28;20258;-77
2022/08/14 01:23:57;;;;;;;;;;;;;;;16.53;66.19;95953.72;4992398;28;20054;-78
2022/08/14 01:26:25;;;;;;;9.70;5.38;;;;;;;16.50;65.68;95960.75;4990587;28;19929;-77
2022/08/14 01:28:54;;;;;;;10.38;6.00;;;;;;;16.51;65.54;95956.03;4991728;28;20500;-77
2022/08/14 01:31:22;;;;;;;8.60;5.68;;;;;;;16.49;65.69;95959.13;4991247;28;20050;-77
2022/08/14 01:33:51;;;;;;;10.80;5.93;;;;;;;16.43;66.06;95955.91;4991891;28;20046;-77
2022/08/14 01:36:19;;;;;;;9.48;6.05;;;;;;;16.39;66.04;95956.97;4991004;28;20046;-78
2022/08/14 01:38:49;;;;;;;7.47;5.15;;;;;;;16.40;66.10;95956.63;4991379;28;20042;-78
2022/08/14 01:41:19;;;;;;;8.25;5.93;;;;;;;16.32;66.18;95952.16;4991078;28;20054;-77
2022/08/14 01:43:48;;;;;;;8.55;5.13;;;;;;;16.31;66.19;95956.06;4991283;28;20058;-78
2022/08/14 01:46:16;;;;;;;8.55;5.57;;;;;;;16.32;66.44;95945.88;4990961;28;20058;-78
2022/08/14 01:48:44;;;;;;;10.27;5.72;;;;;;;16.33;67.21;95941.97;4991422;28;20061;-77
2022/08/14 01:51:11;;;;;;;10.73;6.22;;;;;;;16.27;67.03;95943.44;4990039;28;20046;-77
2022/08/14 01:53:40;;;;;;;11.38;6.50;;;;;;;16.03;66.63;95941.81;4991246;28;20054;-77
2022/08/14 01:56:09;;;;;;;7.50;5.50;;;;;;;16.08;66.64;95945.06;4990834;28;20494;-78
2022/08/14 01:58:35;;;;;;;9.23;5.43;;;;;;;16.18;66.49;95935.41;4991021;28;20053;-78
2022/08/14 02:01:03;;;;;;;8.90;5.50;;;;;;;16.21;66.61;95933.91;4990700;28;20057;-75
2022/08/14 02:03:33;;;;;;;8.80;5.18;;;;;;;16.22;67.07;95930.00;4991167;28;20042;-78
2022/08/14 02:06:00;;;;;;;8.15;5.75;;;;;;;16.12;66.76;95920.38;4991032;28;20050;-77
2022/08/14 02:08:29;;;;;;;9.88;6.32;;;;;;;16.06;67.30;95919.09;4990649;28;20042;-78
2022/08/14 02:13:39;;;;;;;9.18;5.65;;;;;;;15.97;67.71;95915.78;4990445;28;20046;-78
2022/08/14 02:16:06;;;;;;;9.25;6.03;;;;;;;15.95;67.86;95904.38;4990122;28;20100;-78
2022/08/14 02:18:34;;;;;;;9.98;5.72;;;;;;;15.93;67.94;95901.22;4990646;28;20057;-77
2022/08/14 02:21:02;;;;;;;7.90;5.65;;;;;;;15.85;68.33;95898.31;4990648;28;20093;-77
2022/08/14 02:23:29;;;;;;;8.95;5.72;;;;;;;15.80;68.62;95898.59;4989915;28;20130;-78
2022/08/14 02:25:55;;;;;;;10.38;6.15;;;;;;;15.76;68.57;95900.47;4990791;28;20058;-77
2022/08/14 02:28:22;;;;;;;12.02;6.70;;;;;;;15.74;68.83;95894.56;4990249;28;20061;-78
2022/08/14 02:30:50;;;;;;;9.15;6.30;;;;;;;15.68;68.86;95895.22;4990769;28;20042;-77
2022/08/14 02:33:17;;;;;;;9.63;6.32;;;;;;;15.69;68.89;95892.13;4990222;28;20134;-78
2022/08/14 02:35:44;;;;;;;9.80;6.03;;;;;;;15.58;68.96;95893.81;4990475;28;20047;-78
2022/08/14 02:38:11;;;;;;;9.27;6.18;;;;;;;15.55;69.23;95889.03;4990022;28;20502;-77
2022/08/14 02:40:37;;;;;;;14.80;5.95;;;;;;;15.53;69.38;95885.88;4990293;28;20395;-77
2022/08/14 02:43:05;;;;;;;11.45;6.75;;;;;;;15.52;69.25;95881.56;4990219;28;20042;-77
2022/08/14 02:45:33;;;;;;;10.35;5.93;;;;;;;15.49;69.18;95882.25;4990496;28;20497;-78
2022/08/14 02:48:01;;;;;;;9.95;6.20;;;;;;;15.54;69.31;95876.50;4990655;28;20129;-77
2022/08/14 02:50:28;;;;;;;9.05;6.22;;;;;;;15.59;69.03;95867.97;4990270;28;20042;-78
2022/08/14 02:52:55;;;;;;;9.23;5.70;;;;;;;15.54;68.75;95860.03;4990122;28;20046;-78
2022/08/14 02:55:21;;;;;;;9.77;5.97;;;;;;;15.50;68.41;95859.16;4990098;28;20057;-78
2022/08/14 02:57:51;;;;;;;8.05;5.82;;;;;;;15.50;68.51;95867.38;4990458;28;20681;-78
2022/08/14 03:00:18;;;;;;;8.55;5.90;;;;;;;15.47;68.21;95851.66;4989979;28;20043;-78
2022/08/14 03:02:45;;;;;;;10.00;6.22;;;;;;;15.47;68.35;95851.66;4990229;28;20050;-77
2022/08/14 03:05:12;;;;;;;10.00;6.43;;;;;;;15.47;68.56;95848.91;4989906;28;20050;-78
2022/08/14 03:07:39;;;;;;;9.68;6.13;;;;;;;15.40;68.61;95852.31;4990401;28;20054;-78
2022/08/14 03:10:07;;;;;;;11.15;5.70;;;;;;;15.42;68.49;95854.69;4989789;28;20057;-77
2022/08/14 03:12:33;;;;;;;9.75;6.30;;;;;;;15.39;68.48;95846.00;4990363;28;20046;-77
2022/08/14 03:15:02;;;;;;;9.38;5.45;;;;;;;15.37;68.31;95853.03;4990073;28;20054;-77
2022/08/14 03:17:29;;;;;;;9.77;5.95;;;;;;;15.37;68.35;95845.59;4990122;28;20042;-78
2022/08/14 03:19:55;;;;;;;9.80;5.82;;;;;;;15.33;68.40;95852.94;4990198;28;20055;-77
2022/08/14 03:22:23;;;;;;;8.90;6.30;;;;;;;15.31;68.48;95844.28;4988830;28;20506;-78
2022/08/14 03:24:50;;;;;;;10.38;6.43;;;;;;;15.30;68.58;95848.19;4990576;28;20058;-78
2022/08/14 03:27:16;;;;;;;7.82;5.53;;;;;;;15.30;68.30;95853.69;4989774;28;20061;-77
2022/08/14 03:29:43;;;;;;;8.32;5.85;;;;;;;15.31;68.93;95849.78;4990292;28;20046;-79
2022/08/14 03:32:09;;;;;;;9.85;6.57;;;;;;;15.25;68.64;95856.72;4989504;28;20494;-78
2022/08/14 03:34:36;;;;;;;8.93;6.20;;;;;;;15.20;68.78;95848.78;4990185;28;20537;-77
2022/08/14 03:37:02;;;;;;;10.88;6.50;;;;;;;15.12;68.75;95847.00;4989572;28;20670;-77
2022/08/14 03:39:30;;;;;;;7.72;5.53;;;;;;;15.16;69.03;95852.59;4989876;28;20050;-77
2022/08/14 03:41:57;;;;;;;9.50;6.25;;;;;;;15.14;69.28;95852.94;4989673;28;20058;-77
2022/08/14 03:44:24;;;;;;;10.75;5.90;;;;;;;15.19;69.35;95847.19;4989770;28;20050;-77
2022/08/14 03:46:51;;;;;;;8.32;5.32;;;;;;;15.08;69.33;95837.91;4990046;28;20121;-77
2022/08/14 03:49:22;;;;;;;9.73;6.47;;;;;;;15.02;69.06;95853.06;4991027;28;20100;-78
2022/08/14 03:51:49;;;;;;;10.95;6.60;;;;;;;15.03;69.49;95849.94;4992896;28;20053;-77
2022/08/14 03:54:16;;;;;;;8.35;5.65;;;;;;;15.11;69.49;95842.69;4993020;28;20050;-77
2022/08/14 03:56:44;;;;;;;10.82;6.50;;;;;;;15.11;69.26;95845.44;4993189;28;20105;-77
2022/08/14 03:59:12;;;;;;;8.98;6.30;;;;;;;15.08;69.83;95840.66;4993042;28;20047;-77
2022/08/14 04:01:40;;;;;;;8.82;5.68;;;;;;;14.85;69.76;95844.09;4993261;28;20050;-78
2022/08/14 04:04:07;;;;;;;10.30;6.35;;;;;;;14.95;70.19;95831.78;4992842;28;20065;-77
2022/08/14 04:06:35;;;;;;;10.43;5.88;;;;;;;15.01;69.93;95830.34;4993233;28;20057;-77
2022/08/14 04:09:04;;;;;;;8.27;5.45;;;;;;;15.04;70.01;95832.38;4992626;28;20073;-76
2022/08/14 04:11:30;;;;;;;13.80;6.28;;;;;;;14.87;69.43;95822.59;4993054;28;20490;-78
2022/08/14 04:14:00;;;;;;;10.77;6.45;;;;;;;14.84;69.77;95830.75;4993061;28;20057;-77
2022/08/14 04:16:26;;;;;;;8.18;5.32;;;;;;;14.91;69.93;95827.38;4992644;28;20137;-77
2022/08/14 04:18:55;;;;;;;9.38;6.22;;;;;;;14.92;70.02;95815.25;4992937;28;20053;-77
2022/08/14 04:21:23;;;;;;;14.20;7.18;;;;;;;14.91;70.42;95814.44;4992132;28;20076;-78
2022/08/14 04:23:51;;;;;;;9.82;6.00;;;;;;;14.88;70.08;95804.22;4992911;28;20069;-78
2022/08/14 04:26:20;;;;;;;10.25;6.13;;;;;;;14.74;70.21;95799.22;4992298;28;20053;-78
2022/08/14 04:28:48;;;;;;;9.05;5.40;;;;;;;14.79;70.36;95801.66;4992858;28;20134;-78
2022/08/14 04:31:17;;;;;;;8.40;5.70;;;;;;;14.86;70.70;95796.34;4992321;28;20057;-78
2022/08/14 04:33:44;;;;;;;8.80;6.15;;;;;;;14.83;70.82;95805.28;4992871;28;20046;-78
2022/08/14 04:36:11;;;;;;;10.88;6.13;;;;;;;14.90;70.83;95803.84;4992249;28;20050;-77
2022/08/14 04:44:05;;;;;;;8.27;5.72;;;;;;;14.94;70.63;95797.28;4992399;28;20061;-78
2022/08/14 04:46:35;;;;;;;11.32;6.25;;;;;;;15.05;70.48;95797.53;4992401;28;20593;-77
2022/08/14 04:49:00;;;;;;;9.93;5.97;;;;;;;15.11;70.84;95801.56;4992534;28;20050;-77
2022/08/14 04:51:28;;;;;;;9.68;5.97;;;;;;;15.14;70.09;95807.13;4991798;28;20050;-78
2022/08/14 04:53:56;;;;;;;10.75;5.82;;;;;;;15.03;69.81;95810.78;4992308;28;20058;-77
2022/08/14 04:56:24;;;;;;;9.30;5.93;;;;;;;14.97;70.15;95799.31;4991781;28;20058;-78
2022/08/14 04:58:56;;;;;;;10.55;5.78;;;;;;;15.05;69.75;95789.28;4992290;28;20054;-77
2022/08/14 05:01:23;;;;;;;8.65;5.90;;;;;;;15.09;70.14;95784.69;4991794;28;20414;-78
2022/08/14 05:03:53;;;;;;;12.27;6.40;;;;;;;15.04;69.93;95779.47;4992244;28;20049;-77
2022/08/14 05:06:20;;;;;;;8.43;5.38;;;;;;;15.07;69.76;95778.75;4991670;28;20085;-78
2022/08/14 05:08:47;;;;;;;9.23;6.00;;;;;;;15.16;70.15;95784.81;4992171;28;20133;-78
2022/08/14 05:11:14;;;;;;;9.05;6.10;;;;;;;15.17;70.17;95782.88;4991716;28;20126;-77
2022/08/14 05:13:42;;;;;;;7.55;5.00;;;;;;;15.30;70.38;95782.38;4992206;28;20054;-77
2022/08/14 05:16:10;;;;;;;10.15;6.05;;;;;;;15.44;70.47;95781.03;4993758;28;20453;-77
2022/08/14 05:18:38;;;;;;;9.20;6.05;;;;;;;15.48;69.98;95787.38;4995413;28;20065;-77
2022/08/14 05:21:08;;;;;;;9.27;5.40;;;;;;;15.54;69.67;95791.41;4993212;28;20058;-78
2022/08/14 05:23:39;;;;;;;7.32;5.13;;;;;;;15.58;69.44;95787.59;4974422;28;20073;-77
2022/08/14 05:26:11;;;;;;;8.38;5.80;;;;;;;15.67;69.64;95784.66;4972901;28;20061;-77
2022/08/14 05:28:43;;;;;;;9.52;5.70;;;;;;;15.74;68.43;95782.03;4973539;28;20106;-77
2022/08/14 05:31:11;;;;;;;9.05;5.43;;;;;;;15.80;67.74;95783.31;4972451;28;20576;-77
2022/08/14 05:33:38;;;;;;;6.90;4.93;;;;;;;15.91;67.70;95783.50;4973276;28;20070;-77
2022/08/14 05:36:10;;;;;;;7.38;4.75;;;;;;;15.97;67.93;95776.53;4972305;28;20069;-77
2022/08/14 05:38:38;;;;;;;9.30;5.35;;;;;;;16.06;67.14;95785.31;4972287;28;20130;-78
2022/08/14 05:41:07;;;;;;;8.15;5.20;;;;;;;16.11;67.88;95775.97;4971799;28;20129;-78
2022/08/14 05:43:33;;;;;;;9.10;5.07;;;;;;;16.20;67.25;95782.03;4972040;28;20054;-78
2022/08/14 05:46:01;;;;;;;7.90;5.25;;;;;;;16.30;66.13;95784.16;4972165;28;20054;-78
2022/08/14 05:48:28;;;;;;;6.75;4.53;;;;;;;16.36;64.88;95777.16;4971724;28;20050;-77
2022/08/14 05:50:55;;;;;;;7.03;5.00;;;;;;;16.40;65.09;95780.78;4971889;28;20053;-78
2022/08/14 05:53:24;;;;;;;9.23;4.90;;;;;;;16.51;65.14;95783.69;4989353;28;20502;-78
2022/08/14 05:55:51;;;;;;;7.32;4.72;;;;;;;16.59;64.81;95790.06;4991310;28;20046;-78
2022/08/14 05:58:18;;;;;;;7.82;4.88;;;;;;;16.65;65.16;95777.59;4990775;28;20046;-78
2022/08/14 06:00:46;;;;;;;8.90;5.60;;;;;;;16.54;64.37;95782.13;4991007;28;20050;-78
2022/08/14 06:03:16;;;;;;;7.18;5.25;;;;;;;16.72;64.49;95785.97;4990753;28;20069;-78
2022/08/14 06:05:43;;;;;;;7.93;4.35;;;;;;;16.84;65.14;95784.97;4991324;28;20046;-78
2022/08/14 06:08:19;;;;;;;8.50;5.90;;;;;;;16.98;64.68;95796.16;4990437;28;20043;-78
2022/08/14 06:10:46;;;;;;;5.88;4.40;;;;;;;17.04;63.65;95794.66;4990843;28;20046;-78
2022/08/14 06:13:13;;;;;;;7.40;5.03;;;;;;;17.13;63.67;95797.13;4990352;28;20054;-78
2022/08/14 06:15:40;;;;;;;8.40;5.85;;;;;;;17.16;63.13;95799.91;4991107;28;20057;-78
2022/08/14 06:18:07;;;;;;;9.52;5.68;;;;;;;16.94;63.33;95807.09;4990459;28;20104;-78
2022/08/14 06:20:34;;;;;;;10.88;5.10;;;;;;;17.09;63.39;95807.28;4990801;28;20045;-78
2022/08/14 06:23:01;;;;;;;8.40;5.53;;;;;;;17.18;63.31;95805.06;4989672;28;20049;-78
2022/08/14 06:25:28;;;;;;;7.53;5.22;;;;;;;17.17;63.14;95803.44;4990883;28;20477;-77
2022/08/14 06:27:56;;;;;;;9.30;5.40;;;;;;;17.27;62.86;95802.78;4988086;28;20509;-78
2022/08/14 06:30:25;;;;;;;9.18;5.53;;;;;;;17.29;62.71;95805.19;4987397;28;20050;-78
2022/08/14 06:32:52;;;;;;;12.68;5.72;;;;;;;17.39;62.17;95801.78;4984159;28;20054;-79
2022/08/14 06:35:19;;;;;;;10.70;5.50;;;;;;;17.37;61.32;95796.63;4968021;28;20061;-78
2022/08/14 06:37:47;;;;;;;9.90;5.18;;;;;;;17.55;61.76;95801.56;4968225;28;20126;-78
2022/08/14 06:40:16;;;;;;;9.48;5.85;;;;;;;17.70;61.63;95792.28;4967551;28;20047;-78
2022/08/14 06:42:43;;;;;;;11.25;5.65;;;;;;;17.57;60.93;95801.97;4967992;28;20047;-77
2022/08/14 06:45:12;;;;;;;10.18;6.00;;;;;;;17.78;60.96;95799.47;4968075;28;20055;-78
2022/08/14 06:47:42;;;;;;;8.60;5.22;;;;;;;17.96;61.18;95803.22;4968833;28;20055;-79
2022/08/14 06:50:11;;;;;;;8.63;5.00;;;;;;;18.05;61.15;95804.84;4968453;28;20055;-79
2022/08/14 06:52:38;;;;;;;10.35;5.50;;;;;;;17.90;59.68;95807.47;4980984;28;20060;-78
2022/08/14 06:55:06;;;;;;;8.48;5.38;;;;;;;17.91;59.81;95814.56;4987088;28;20077;-78
2022/08/14 06:57:37;;;;;;;10.10;5.95;;;;;;;18.06;59.89;95820.19;4987647;28;20133;-77
2022/08/14 07:00:06;;;;;;;9.48;5.68;;;;;;;18.13;59.38;95812.81;4987280;28;20129;-78
2022/08/14 07:08:04;;;;;;;8.82;5.13;;;;;;;18.73;59.26;95814.47;4987244;28;20053;-78
2022/08/14 07:10:30;;;;;;;9.43;5.47;;;;;;;18.84;59.36;95829.13;4969842;28;20602;-78
2022/08/14 07:12:57;;;;;;;9.27;5.65;;;;;;;19.00;59.33;95818.63;4978077;28;20057;-78
2022/08/14 07:15:23;;;;;;;8.45;5.22;;;;;;;19.15;58.81;95824.19;4987091;28;20057;-78
2022/08/14 07:17:51;;;;;;;14.48;7.60;;;;;;;19.33;60.29;95807.72;4985123;28;20062;-78
2022/08/14 07:20:19;;;;;;;14.30;7.93;;;;;;;19.46;61.28;95806.97;4981559;28;20057;-78
2022/08/14 07:22:46;;;;;;;9.57;5.72;;;;;;;19.61;59.30;95807.06;4987903;28;20101;-78
2022/08/14 07:25:12;;;;;;;7.95;4.90;;;;;;;19.71;58.17;95800.78;4987664;28;20093;-78
2022/08/14 07:27:39;;;;;;;10.18;5.90;;;;;;;19.82;57.45;95801.59;4991090;28;20050;-78
2022/08/14 07:30:07;;;;;;;9.27;5.85;;;;;;;19.82;56.81;95790.53;4987966;28;20054;-78
2022/08/14 07:32:33;;;;;;;15.35;6.15;;;;;;;19.89;56.81;95790.59;4990485;28;20046;-77
2022/08/14 07:35:01;;;;;;;28.17;8.40;;;;;;;20.02;56.66;95791.78;4986107;28;20046;-77
2022/08/14 07:37:28;;;;;;;19.33;6.95;;;;;;;20.04;56.15;95794.91;4987495;28;20062;-77
2022/08/14 07:39:54;;;;;;;11.60;5.10;;;;;;;20.11;56.75;95788.63;4988191;28;20084;-77
2022/08/14 07:42:22;;;;;;;8.48;4.78;;;;;;;20.41;56.92;95777.19;4990235;28;20100;-77
2022/08/14 07:44:49;;;;;;;11.75;5.75;;;;;;;20.66;55.76;95776.41;4989128;28;20137;-77
2022/08/14 07:47:15;;;;;;;11.23;5.28;;;;;;;20.91;56.08;95777.13;4990411;28;20145;-78
2022/08/14 07:49:47;;;;;;;17.77;6.97;;;;;;;21.30;54.20;95767.97;4989889;28;20105;-78
2022/08/14 07:52:15;;;;;;;11.98;5.57;;;;;;;21.91;52.21;95768.41;4970725;28;20055;-78
2022/08/14 07:54:41;;;;;;;12.73;5.50;;;;;;;22.57;51.75;95773.91;4976505;28;20128;-78
2022/08/14 07:57:08;;;;;;;11.80;5.47;;;;;;;23.26;49.99;95760.13;4989842;28;20046;-78
2022/08/14 07:59:34;;;;;;;10.90;5.22;;;;;;;23.57;48.63;95753.38;4990353;28;20049;-77
2022/08/14 08:02:04;;;;;;;13.13;5.43;;;;;;;24.04;47.98;95750.75;4990285;28;20054;-78
2022/08/14 08:04:31;;;;;;;10.60;4.78;;;;;;;24.29;46.06;95753.16;4989987;28;20446;-77
2022/08/14 08:06:59;;;;;;;11.55;5.10;;;;;;;24.51;46.61;95750.03;4990063;28;20050;-78
2022/08/14 08:09:31;;;;;;;10.00;4.78;;;;;;;24.34;45.86;95757.47;4989748;28;20502;-78
2022/08/14 08:11:58;;;;;;;10.73;4.70;;;;;;;24.66;44.58;95756.94;4981483;28;20050;-78
2022/08/14 08:14:25;;;;;;;10.07;4.72;;;;;;;24.80;44.14;95751.13;4989663;28;20046;-78
2022/08/14 08:16:52;;;;;;;9.88;5.13;;;;;;;24.93;43.37;95743.72;4989923;28;20053;-79
2022/08/14 08:19:19;;;;;;;9.57;4.60;;;;;;;25.02;43.24;95740.38;4989267;28;20046;-78
2022/08/14 08:21:46;;;;;;;8.15;4.28;;;;;;;25.21;41.61;95741.59;4989258;28;20047;-77
2022/08/14 08:24:12;;;;;;;9.70;4.40;;;;;;;25.47;42.25;95745.47;4989467;28;20069;-77
2022/08/14 08:26:40;;;;;;;11.38;4.60;;;;;;;25.45;41.96;95739.53;4989739;28;20062;-79
2022/08/14 08:29:08;;;;;;;10.13;4.63;;;;;;;25.53;42.17;95746.56;4989308;28;20081;-78
2022/08/14 08:31:46;;;;;;;7.53;4.15;;;;;;;25.65;42.29;95740.31;4988577;28;20042;-78
2022/08/14 08:34:14;;;;;;;12.30;4.32;;;;;;;25.64;42.93;95735.94;4989279;28;20054;-78
2022/08/14 08:36:41;;;;;;;9.70;4.53;;;;;;;25.63;40.11;95734.38;4989690;28;20055;-77
2022/08/14 08:39:07;;;;;;;8.50;4.13;;;;;;;25.69;41.88;95746.59;4989012;28;20116;-77
2022/08/14 08:41:43;;;;;;;8.77;4.47;;;;;;;25.92;42.07;95736.56;4989520;28;20509;-77
2022/08/14 08:44:11;;;;;;;7.35;3.67;;;;;;;25.98;39.89;95726.44;4988907;28;20050;-78
2022/08/14 08:46:38;;;;;;;7.97;4.10;;;;;;;26.09;40.89;95729.00;4989722;28;20050;-78
2022/08/14 08:49:06;;;;;;;9.07;3.75;;;;;;;26.16;40.04;95737.22;4988665;28;20046;-77
2022/08/14 08:51:34;;;;;;;8.48;3.92;;;;;;;26.06;38.17;95739.03;4988967;28;20050;-78
2022/08/14 08:54:03;;;;;;;9.93;3.90;;;;;;;26.03;40.42;95735.09;4989233;28;20050;-77
2022/08/14 08:56:37;;;;;;;10.18;4.10;;;;;;;26.34;38.19;95725.59;4989208;28;20073;-78
2022/08/14 08:59:17;;;;;;;7.95;4.13;;;;;;;26.46;38.49;95727.72;4988667;28;20058;-77
2022/08/14 09:01:47;;;;;;;7.85;3.65;;;;;;;26.53;38.58;95722.75;4988901;28;20050;-77
2022/08/14 09:04:14;;;;;;;6.22;3.50;;;;;;;26.70;37.77;95731.88;4988887;28;20694;-77
2022/08/14 09:06:43;;;;;;;7.50;4.00;;;;;;;26.76;35.45;95718.16;4989027;28;20050;-77
2022/08/14 09:09:18;;;;;;;7.75;3.63;;;;;;;26.90;37.46;95728.19;4988423;28;20057;-76
2022/08/14 09:11:44;;;;;;;7.15;3.58;;;;;;;26.91;35.09;95721.38;4989437;28;20089;-77
2022/08/14 09:14:12;;;;;;;10.45;4.50;;;;;;;27.12;36.13;95718.00;4988863;28;20057;-77
2022/08/14 09:16:39;;;;;;;8.35;3.92;;;;;;;27.17;34.54;95717.47;4988602;28;20050;-77
2022/08/14 09:19:06;;;;;;;10.40;4.05;;;;;;;27.27;35.32;95716.38;4988329;28;20050;-76
2022/08/14 09:21:34;;;;;;;7.57;3.47;;;;;;;27.19;33.96;95717.03;4987808;28;20084;-76
2022/08/14 09:24:01;;;;;;;8.00;3.58;;;;;;;27.35;35.70;95714.16;4988680;28;20076;-76
2022/08/14 09:26:27;;;;;;;6.97;3.70;;;;;;;27.38;34.73;95718.88;4988657;28;20051;-76
2022/08/14 09:28:54;;;;;;;6.43;2.97;;;;;;;27.53;36.60;95719.25;4988422;28;20054;-76
2022/08/14 09:31:23;;;;;;;5.32;3.17;;;;;;;27.56;35.61;95715.53;4988115;28;20054;-76
2022/08/14 09:34:08;;;;;;;8.43;3.40;;;;;;;27.41;33.64;95706.03;4988462;28;20065;-76
2022/08/14 09:36:45;;;;;;;8.55;4.05;;;;;;;27.62;34.66;95693.44;4988348;28;20510;-77
2022/08/14 09:39:25;;;;;;;9.50;4.22;;;;;;;27.71;33.62;95693.56;4988035;28;20057;-77
2022/08/14 09:42:08;;;;;;;7.00;3.88;;;;;;;27.77;34.12;95689.78;4986523;28;20454;-77
2022/08/14 09:44:45;;;;;;;8.40;4.20;;;;;;;27.80;34.52;95693.69;4986894;28;20046;-78
2022/08/14 09:47:15;;;;;;;8.88;4.25;;;;;;;27.85;34.49;95693.13;4986726;28;20529;-77
2022/08/14 09:49:42;;;;;;;6.47;3.58;;;;;;;27.92;34.46;95694.91;4988359;28;20046;-76
2022/08/14 09:52:11;;;;;;;7.25;4.15;;;;;;;28.01;33.93;95692.22;4987327;28;20085;-77
2022/08/14 09:54:41;;;;;;;9.25;4.22;;;;;;;27.96;34.10;95687.97;4987808;28;20502;-77
2022/08/14 09:57:09;;;;;;;11.20;4.63;;;;;;;28.06;34.57;95677.66;4987125;28;20050;-77
2022/08/14 09:59:45;;;;;;;9.40;4.60;;;;;;;28.05;34.32;95670.50;4987777;28;20062;-76
2022/08/14 10:02:27;;;;;;;7.80;4.00;;;;;;;28.01;33.63;95669.84;4987404;28;20050;-77
2022/08/14 10:05:06;;;;;;;8.30;3.72;;;;;;;27.98;34.15;95679.13;4988079;28;20054;-77
2022/08/14 10:07:35;;;;;;;10.30;4.63;;;;;;;28.00;33.41;95679.47;4987473;28;20134;-76
2022/08/14 10:10:02;;;;;;;9.88;4.38;;;;;;;28.09;33.79;95682.38;4987961;28;20464;-79
2022/08/14 10:12:46;;;;;;;8.65;4.30;;;;;;;28.18;32.30;95682.47;4987619;28;20046;-78
2022/08/14 10:15:21;;;;;;;9.85;4.35;;;;;;;28.26;32.51;95686.63;4987236;28;20100;-76
2022/08/14 10:17:50;;;;;;;8.77;4.22;;;;;;;28.27;34.72;95676.19;4987572;28;20050;-77
2022/08/14 10:20:21;;;;;;;7.55;4.00;;;;;;;28.48;32.18;95678.31;4986291;28;20085;-77
2022/08/14 10:22:48;;;;;;;10.27;4.55;;;;;;;28.50;33.42;95669.44;4987441;28;20046;-77
2022/08/14 10:25:16;;;;;;;8.60;4.13;;;;;;;28.27;33.42;95665.00;4987197;28;20488;-76
2022/08/14 10:27:45;;;;;;;10.57;4.20;;;;;;;28.22;33.03;95669.13;4987248;28;20505;-76
2022/08/14 10:30:16;;;;;;;10.93;3.95;;;;;;;28.09;33.57;95660.00;4987209;28;20046;-77
2022/08/14 10:32:44;;;;;;;7.82;4.03;;;;;;;28.13;32.33;95660.63;4987598;28;20650;-76
2022/08/14 10:35:13;;;;;;;9.55;4.70;;;;;;;28.17;32.37;95661.31;4983405;28;20064;-77
2022/08/14 10:37:42;;;;;;;9.73;4.57;;;;;;;27.97;33.88;95657.97;4968220;28;20487;-77
2022/08/14 10:40:10;;;;;;;11.02;4.60;;;;;;;28.17;32.91;95655.72;4967589;28;20546;-77
2022/08/14 10:42:37;;;;;;;7.90;4.05;;;;;;;28.25;33.80;95650.69;4967714;28;20059;-77
2022/08/14 10:45:19;;;;;;;7.97;4.40;;;;;;;28.21;32.75;95650.00;4967633;28;20059;-76
2022/08/14 10:47:46;;;;;;;7.50;4.13;;;;;;;28.27;33.21;95651.00;4968142;28;20078;-77
2022/08/14 10:50:15;;;;;;;8.52;4.60;;;;;;;28.26;33.06;95647.41;4971262;28;20518;-77
2022/08/14 10:52:42;;;;;;;7.88;4.30;;;;;;;28.40;33.03;95639.78;4986686;28;20061;-77
2022/08/14 10:55:12;;;;;;;12.23;5.20;;;;;;;28.44;33.80;95657.25;4986571;28;20050;-77
2022/08/14 10:57:48;;;;;;;8.98;5.00;;;;;;;28.49;33.49;95640.66;4987321;28;20517;-77
2022/08/14 11:00:17;;;;;;;16.42;8.00;;;;;;;28.49;32.90;95642.69;4990594;28;20050;-77
2022/08/14 11:02:44;;;;;;;10.75;5.90;;;;;;;28.48;34.06;95635.50;4990909;28;20058;-77
2022/08/14 11:05:13;;;;;;;10.50;5.13;;;;;;;28.29;33.61;95624.09;4990528;28;20057;-77
2022/08/14 11:07:42;;;;;;;9.63;4.50;;;;;;;28.45;33.89;95630.81;4991077;28;20062;-77
2022/08/14 11:10:11;;;;;;;9.98;5.05;;;;;;;28.39;33.13;95621.41;4990331;28;20521;-77
2022/08/14 11:12:45;;;;;;;11.70;4.40;;;;;;;28.33;32.64;95633.19;4991245;28;20046;-77
2022/08/14 11:15:12;;;;;;;12.70;4.63;;;;;;;28.40;33.45;95628.59;4990383;28;20062;-77
2022/08/14 11:17:39;;;;;;;15.65;5.38;;;;;;;28.46;33.16;95621.19;4990664;28;20050;-77
2022/08/14 11:20:08;;;;;;;11.95;4.65;;;;;;;28.46;32.84;95616.38;4989672;28;20061;-77
2022/08/14 11:22:40;;;;;;;11.18;4.10;;;;;;;28.40;34.93;95609.78;4990742;28;20042;-77
2022/08/14 11:25:10;;;;;;;11.50;4.53;;;;;;;28.35;32.43;95604.75;4979049;28;20046;-77
2022/08/14 11:27:39;;;;;;;14.10;4.80;;;;;;;28.39;33.92;95605.41;4970941;28;20091;-77
2022/08/14 11:30:09;;;;;;;15.05;5.25;;;;;;;28.42;33.89;95600.94;4970773;28;20050;-77
2022/08/14 11:32:36;;;;;;;13.75;4.63;;;;;;;28.46;33.10;95593.19;4970884;28;20058;-76
2022/08/14 11:35:03;;;;;;;11.23;4.40;;;;;;;28.44;33.39;95590.03;4970654;28;20125;-77
2022/08/14 11:37:32;;;;;;;18.38;5.70;;;;;;;28.58;34.85;95584.72;4970701;28;20417;-77
2022/08/14 11:39:59;;;;;;;13.63;4.88;;;;;;;28.70;33.90;95597.09;4971057;28;20054;-79
2022/08/14 11:42:29;;;;;;;12.10;4.32;;;;;;;28.45;32.40;95586.81;4970065;28;20497;-79
2022/08/14 11:44:59;;;;;;;12.25;4.55;;;;;;;28.52;34.07;95575.34;4970965;28;20055;-78
2022/08/14 11:47:27;;;;;;;15.43;4.97;;;;;;;28.38;32.86;95575.06;4970298;28;20495;-78
2022/08/14 11:49:54;;;;;;;11.98;4.45;;;;;;;28.44;33.65;95578.84;4972474;28;20047;-79
2022/08/14 11:52:20;;;;;;;12.63;4.70;;;;;;;28.51;32.74;95575.81;4989685;28;20066;-78